createdAt,value
2018-07-09T00:02:33.275Z,"    0"
2018-07-09T00:07:29.105Z,"    0"
2018-07-09T00:12:25.015Z,"    0"
2018-07-09T00:17:20.817Z,"    0"
2018-07-09T00:22:16.651Z,"    0"
2018-07-09T00:27:12.083Z,"    0"
2018-07-09T00:32:08.213Z,"    0"
2018-07-09T00:37:04.045Z,"    0"
2018-07-09T00:42:00.367Z,"    0"
2018-07-09T00:46:56.315Z,"    0"
2018-07-09T00:51:52.103Z,"    0"
2018-07-09T00:56:47.941Z,"    0"
2018-07-09T01:01:44.723Z,"    0"
2018-07-09T01:06:39.952Z,"    0"
2018-07-09T01:11:35.418Z,"    0"
2018-07-09T01:16:31.164Z,"    0"
2018-07-09T01:21:27.844Z,"    0"
2018-07-09T01:26:23.665Z,"    0"
2018-07-09T01:31:19.462Z,"    0"
2018-07-09T01:36:15.379Z,"    0"
2018-07-09T01:41:11.247Z,"    0"
2018-07-09T01:46:08.489Z,"    0"
2018-07-09T01:51:05.058Z,"    0"
2018-07-09T01:56:01.716Z,"    0"
2018-07-09T02:00:58.442Z,"    0"
2018-07-09T02:05:55.514Z,"    0"
2018-07-09T02:10:51.358Z,"    0"
2018-07-09T02:15:48.951Z,"    0"
2018-07-09T02:20:44.350Z,"    0"
2018-07-09T02:25:40.905Z,"    0"
2018-07-09T02:30:37.796Z,"    0"
2018-07-09T02:35:33.360Z,"    0"
2018-07-09T02:40:28.991Z,"    4"
2018-07-09T02:45:24.921Z,"    8"
2018-07-09T02:50:20.818Z,"    8"
2018-07-09T02:55:16.489Z,"   16"
2018-07-09T03:00:13.306Z,"   24"
2018-07-09T03:05:09.123Z,"   40"
2018-07-09T03:10:04.880Z,"   68"
2018-07-09T03:15:01.581Z,"  100"
2018-07-09T03:19:58.145Z,"  140"
2018-07-09T03:24:53.788Z,"  180"
2018-07-09T03:29:49.495Z,"  240"
2018-07-09T03:34:45.958Z,"  304"
2018-07-09T03:39:42.132Z,"  392"
2018-07-09T03:44:38.699Z,"  496"
2018-07-09T03:49:35.695Z,"  608"
2018-07-09T03:54:31.897Z,"  840"
2018-07-09T03:59:28.296Z,"  996"
2018-07-09T04:04:25.124Z," 1124"
2018-07-09T04:09:20.679Z," 1268"
2018-07-09T04:14:16.616Z," 1416"
2018-07-09T04:19:12.425Z," 1556"
2018-07-09T04:24:09.287Z," 1692"
2018-07-09T04:29:06.529Z," 1916"
2018-07-09T04:34:01.989Z," 2656"
2018-07-09T04:38:58.893Z," 5776"
2018-07-09T04:43:56.765Z," 6408"
2018-07-09T04:48:53.597Z," 7256"
2018-07-09T04:53:51.649Z," 7652"
2018-07-09T04:58:48.740Z," 8500"
2018-07-09T05:03:45.242Z," 9672"
2018-07-09T05:08:42.155Z,10476
2018-07-09T05:13:39.011Z,11604
2018-07-09T05:18:35.888Z,12888
2018-07-09T05:23:32.709Z,13968
2018-07-09T05:28:29.466Z,15936
2018-07-09T05:33:26.823Z," 7396"
2018-07-09T05:38:21.850Z,16384
2018-07-09T05:43:19.776Z,19200
2018-07-09T05:48:16.196Z,20736
2018-07-09T05:53:13.660Z,13396
2018-07-09T05:58:08.512Z,14756
2018-07-09T06:03:04.427Z,14896
2018-07-09T06:07:59.657Z," 8924"
2018-07-09T06:12:55.842Z," 8276"
2018-07-09T06:17:50.620Z," 9740"
2018-07-09T06:22:46.120Z,10716
2018-07-09T06:27:42.683Z," 9692"
2018-07-09T06:32:37.757Z," 7920"
2018-07-09T06:37:33.429Z," 7660"
2018-07-09T06:42:29.074Z," 9068"
2018-07-09T06:47:26.109Z,10860
2018-07-09T06:52:23.066Z,11324
2018-07-09T06:57:19.006Z,12720
2018-07-09T07:02:15.025Z,12884
2018-07-09T07:07:11.651Z,12848
2018-07-09T07:12:08.170Z,13004
2018-07-09T07:17:04.424Z,12444
2018-07-09T07:22:01.182Z,15140
2018-07-09T07:26:58.445Z,14736
2018-07-09T07:31:54.424Z,15464
2018-07-09T07:36:50.619Z,11236
2018-07-09T07:41:46.598Z,11940
2018-07-09T07:46:44.028Z,11944
2018-07-09T07:51:40.284Z,17280
2018-07-09T07:56:36.395Z,14544
2018-07-09T08:01:32.542Z,13596
2018-07-09T08:06:29.647Z,14288
2018-07-09T08:11:47.731Z,11016
2018-07-09T08:16:25.213Z,18336
2018-07-09T08:21:23.067Z,34144
2018-07-09T08:26:20.381Z,21920
2018-07-09T08:31:17.796Z,51584
2018-07-09T08:36:16.760Z,40736
2018-07-09T08:41:14.538Z,49088
2018-07-09T08:46:11.679Z,30816
2018-07-09T08:51:07.161Z,23648
2018-07-09T08:56:04.387Z,55136
2018-07-09T09:01:01.859Z,53312
2018-07-09T09:05:57.952Z,65952
2018-07-09T09:10:56.116Z,17760
2018-07-09T09:15:51.781Z,31744
2018-07-09T09:20:46.949Z,10196
2018-07-09T09:25:40.890Z,11964
2018-07-09T09:30:35.450Z,15232
2018-07-09T09:35:30.994Z,14480
2018-07-09T09:40:26.670Z,17088
2018-07-09T09:45:23.555Z,14196
2018-07-09T09:50:19.745Z,12608
2018-07-09T09:55:15.414Z,15420
2018-07-09T10:00:11.356Z," 8876"
2018-07-09T10:05:07.878Z," 8080"
2018-07-09T10:10:03.262Z,11412
2018-07-09T10:14:59.710Z,22560
2018-07-09T10:19:56.495Z,19904
2018-07-09T10:24:52.930Z,20992
2018-07-09T10:29:50.428Z,15232
2018-07-09T10:34:45.764Z,15276
2018-07-09T10:39:42.718Z," 7428"
2018-07-09T10:44:37.446Z," 4312"
2018-07-09T10:49:32.983Z,11728
2018-07-09T10:54:29.469Z,12112
2018-07-09T10:59:25.399Z," 6108"
2018-07-09T11:04:20.843Z," 7932"
2018-07-09T11:09:17.662Z," 4292"
2018-07-09T11:14:13.184Z," 4676"
2018-07-09T11:19:09.077Z," 4612"
2018-07-09T11:24:04.948Z," 7140"
2018-07-09T11:29:01.279Z," 6076"
2018-07-09T11:33:58.171Z," 5468"
2018-07-09T11:38:54.748Z," 6576"
2018-07-09T11:43:51.663Z," 9236"
2018-07-09T11:48:47.747Z,10324
2018-07-09T11:53:44.273Z,13500
2018-07-09T11:58:42.286Z,17824
2018-07-09T12:03:38.458Z,13428
2018-07-09T12:08:34.491Z," 9756"
2018-07-09T12:13:30.238Z," 9092"
2018-07-09T12:18:26.069Z,10352
2018-07-09T12:23:23.101Z,11464
2018-07-09T12:28:18.983Z,12868
2018-07-09T12:33:16.453Z,73312
2018-07-09T12:38:19.945Z,31456
2018-07-09T12:43:15.707Z,37440
2018-07-09T12:48:11.867Z,10752
2018-07-09T12:53:07.989Z,21664
2018-07-09T12:58:04.731Z,60288
2018-07-09T13:03:02.771Z,92032
2018-07-09T13:08:00.247Z,42720
2018-07-09T13:12:55.047Z,14708
2018-07-09T13:17:49.355Z," 5064"
2018-07-09T13:22:45.421Z,10412
2018-07-09T13:27:40.586Z,13344
2018-07-09T13:32:36.232Z," 6868"
2018-07-09T13:37:32.411Z," 8560"
2018-07-09T13:42:27.658Z," 8056"
2018-07-09T13:47:24.277Z," 8328"
2018-07-09T13:52:20.429Z,12336
2018-07-09T13:57:16.728Z,10720
2018-07-09T14:02:12.584Z," 9416"
2018-07-09T14:07:08.622Z," 8980"
2018-07-09T14:12:05.228Z," 5492"
2018-07-09T14:17:00.592Z," 5536"
2018-07-09T14:21:56.129Z," 3892"
2018-07-09T14:26:53.010Z," 3256"
2018-07-09T14:31:48.324Z," 2608"
2018-07-09T14:36:44.374Z," 2456"
2018-07-09T14:41:40.536Z," 4392"
2018-07-09T14:46:36.322Z," 3436"
2018-07-09T14:51:32.286Z," 2500"
2018-07-09T14:56:28.001Z," 1680"
2018-07-09T15:01:25.003Z," 2524"
2018-07-09T15:06:21.377Z," 7864"
2018-07-09T15:11:18.643Z,11816
2018-07-09T15:16:14.995Z," 8176"
2018-07-09T15:21:11.925Z," 5940"
2018-07-09T15:26:08.672Z," 6680"
2018-07-09T15:31:05.930Z,12684
2018-07-09T15:36:03.440Z,12048
2018-07-09T15:40:59.348Z,10828
2018-07-09T15:45:55.805Z,10268
2018-07-09T15:50:52.658Z," 9368"
2018-07-09T15:55:48.521Z," 6168"
2018-07-09T16:00:44.960Z," 7168"
2018-07-09T16:05:40.597Z," 5992"
2018-07-09T16:10:36.499Z," 5604"
2018-07-09T16:15:32.527Z," 6200"
2018-07-09T16:20:28.810Z," 7452"
2018-07-09T16:25:24.941Z," 6232"
2018-07-09T16:30:20.808Z," 7184"
2018-07-09T16:35:16.596Z," 5432"
2018-07-09T16:40:12.241Z," 1564"
2018-07-09T16:45:07.917Z," 3632"
2018-07-09T16:50:03.965Z," 5972"
2018-07-09T16:54:59.676Z," 4064"
2018-07-09T16:59:55.293Z," 3420"
2018-07-09T17:04:51.298Z," 4908"
2018-07-09T17:09:47.787Z," 5784"
2018-07-09T17:14:43.779Z," 4480"
2018-07-09T17:19:40.825Z," 3460"
2018-07-09T17:24:37.411Z," 3596"
2018-07-09T17:29:34.073Z," 4508"
2018-07-09T17:34:29.810Z," 4132"
2018-07-09T17:39:25.650Z," 4112"
2018-07-09T17:44:21.224Z," 3632"
2018-07-09T17:49:17.334Z," 2328"
2018-07-09T17:54:13.173Z," 2064"
2018-07-09T17:59:09.840Z," 2856"
2018-07-09T18:04:05.177Z," 1648"
2018-07-09T18:09:00.664Z," 1316"
2018-07-09T18:13:57.391Z," 1688"
2018-07-09T18:18:52.901Z," 1944"
2018-07-09T18:23:48.640Z," 1556"
2018-07-09T18:28:45.356Z," 1372"
2018-07-09T18:33:41.802Z," 1424"
2018-07-09T18:38:37.292Z," 1248"
2018-07-09T18:43:34.147Z," 1456"
2018-07-09T18:48:29.628Z," 1232"
2018-07-09T18:53:26.534Z,"  948"
2018-07-09T18:58:22.095Z,"  756"
2018-07-09T19:03:17.730Z,"  712"
2018-07-09T19:08:14.553Z,"  600"
2018-07-09T19:13:09.923Z,"  480"
2018-07-09T19:18:06.833Z,"  408"
2018-07-09T19:23:03.545Z,"  352"
2018-07-09T19:27:58.931Z,"  272"
2018-07-09T19:32:55.291Z,"  252"
2018-07-09T19:37:51.897Z,"  160"
2018-07-09T19:42:48.935Z,"   96"
2018-07-09T19:47:45.554Z,"   72"
2018-07-09T19:52:41.128Z,"   44"
2018-07-09T19:57:37.519Z,"   32"
2018-07-09T20:02:34.021Z,"   16"
2018-07-09T20:07:30.800Z,"    8"
2018-07-09T20:12:25.993Z,"    4"
2018-07-09T20:17:22.279Z,"    0"
2018-07-09T20:22:19.604Z,"    0"
2018-07-09T20:27:15.187Z,"    0"
2018-07-09T20:32:12.260Z,"    0"
2018-07-09T20:37:09.055Z,"    0"
2018-07-09T20:42:04.515Z,"    0"
2018-07-09T20:47:00.530Z,"    0"
2018-07-09T20:51:57.075Z,"    0"
2018-07-09T20:56:52.817Z,"    0"
2018-07-09T21:01:48.329Z,"    0"
2018-07-09T21:06:44.249Z,"    0"
2018-07-09T21:11:41.110Z,"    0"
2018-07-09T21:16:37.611Z,"    0"
2018-07-09T21:21:34.574Z,"    0"
2018-07-09T21:26:31.760Z,"    0"
2018-07-09T21:31:28.362Z,"    0"
2018-07-09T21:36:24.625Z,"    0"
2018-07-09T21:41:20.278Z,"    0"
2018-07-09T21:46:16.696Z,"    0"
2018-07-09T21:51:12.793Z,"    0"
2018-07-09T21:56:08.298Z,"    0"
2018-07-09T22:01:04.391Z,"    0"
2018-07-09T22:06:00.834Z,"    0"
2018-07-09T22:10:56.651Z,"    0"
2018-07-09T22:15:52.339Z,"    0"
2018-07-09T22:20:48.082Z,"    0"
2018-07-09T22:25:44.114Z,"    0"
2018-07-09T22:30:39.770Z,"    0"
2018-07-09T22:35:35.267Z,"    0"
2018-07-09T22:40:32.240Z,"    0"
2018-07-09T22:45:27.858Z,"    0"
2018-07-09T22:50:24.478Z,"    0"
2018-07-09T22:55:20.067Z,"    0"
2018-07-09T23:00:16.074Z,"    0"
2018-07-09T23:05:11.911Z,"    0"
2018-07-09T23:10:07.722Z,"    0"
2018-07-09T23:15:03.689Z,"    0"
2018-07-09T23:19:59.499Z,"    0"
2018-07-09T23:24:55.843Z,"    0"
2018-07-09T23:29:52.728Z,"    0"
2018-07-09T23:34:48.771Z,"    0"
2018-07-09T23:39:44.552Z,"    0"
2018-07-09T23:44:41.597Z,"    0"
2018-07-09T23:49:38.096Z,"    0"
2018-07-09T23:54:33.609Z,"    0"
2018-07-09T23:59:29.310Z,"    0"
